Time;durP1;ratioP1;P1;durP2;ratioP2;P2;SDS_P1;SDS_P2;PMS_P1;PMS_P2;Temp;Humidity;BMP_temperature;BMP_pressure;BME280_temperature;BME280_humidity;BME280_pressure;Samples;Min_cycle;Max_cycle;Signal;HPM_P1;HPM_P2
2022/08/08 00:00:12;;;;;;;3.00;2.00;;;692.10;1459.20;;;;;;4860908;29;20044;-77
2022/08/08 00:02:52;;;;;;;5.45;1.83;;;692.10;1459.20;;;;;;4876719;29;20037;-77
2022/08/08 00:05:49;;;;;;;5.30;1.92;;;692.10;1433.60;;;;;;4876965;29;20071;-78
2022/08/08 00:08:45;;;;;;;5.45;1.80;;;692.10;1433.60;;;;;;4803687;29;20096;-78
2022/08/08 00:11:34;;;;;;;3.13;2.10;;;692.00;1459.20;;;;;;4707591;30;20070;-77
2022/08/08 00:14:07;;;;;;;3.95;1.90;;;692.00;1459.20;;;;;;4697587;30;20054;-78
2022/08/08 00:16:39;;;;;;;4.50;2.10;;;692.10;1433.60;;;;;;4699608;30;20041;-77
2022/08/08 00:19:19;;;;;;;7.65;2.03;;;692.00;1433.60;;;;;;4712636;30;20529;-78
2022/08/08 00:22:03;;;;;;;6.50;1.90;;;691.90;1459.20;;;;;;4753390;30;20051;-79
2022/08/08 00:25:03;;;;;;;3.13;1.70;;;691.80;1459.20;;;;;;4752699;30;20116;-79
2022/08/08 00:27:30;;;;;;;8.40;2.47;;;691.80;1459.20;;;;;;4750641;30;20199;-79
2022/08/08 00:30:05;;;;;;;2.53;1.83;;;691.70;1459.20;;;;;;4788855;29;20122;-77
2022/08/08 00:32:33;;;;;;;4.07;1.80;;;691.70;1459.20;;;;;;4788577;30;20039;-78
2022/08/08 00:35:25;;;;;;;6.10;2.00;;;691.70;1459.20;;;;;;4788608;30;20051;-77
2022/08/08 00:38:13;;;;;;;4.38;1.90;;;691.70;1433.60;;;;;;4788667;30;20047;-78
2022/08/08 00:40:44;;;;;;;4.78;1.92;;;691.70;1433.60;;;;;;4788445;30;20058;-80
2022/08/08 00:43:19;;;;;;;3.60;1.50;;;691.70;1433.60;;;;;;4788767;30;20047;-78
2022/08/08 00:45:54;;;;;;;3.20;1.80;;;691.70;1433.60;;;;;;4857643;29;20081;-78
2022/08/08 00:48:22;;;;;;;4.90;1.50;;;691.70;1433.60;;;;;;4918454;29;20043;-79
2022/08/08 00:51:06;;;;;;;3.65;1.80;;;691.60;1433.60;;;;;;4938339;29;20102;-79
2022/08/08 00:54:09;;;;;;;6.47;2.10;;;691.70;1433.60;;;;;;4920423;29;20166;-79
2022/08/08 00:56:55;;;;;;;4.10;1.50;;;691.40;1459.20;;;;;;4936202;29;20540;-79
2022/08/08 00:59:52;;;;;;;8.23;1.80;;;691.30;1459.20;;;;;;4936465;29;20043;-77
2022/08/08 01:02:46;;;;;;;4.22;1.88;;;691.40;1459.20;;;;;;4944035;28;20131;-78
2022/08/08 01:05:50;;;;;;;5.82;1.73;;;691.30;1459.20;;;;;;4959380;28;20038;-77
2022/08/08 01:08:34;;;;;;;3.10;1.48;;;691.30;1459.20;;;;;;4959334;28;20030;-78
2022/08/08 01:11:21;;;;;;;4.55;1.60;;;691.30;1459.20;;;;;;4989104;28;20077;-77
2022/08/08 01:14:03;;;;;;;2.55;1.42;;;691.30;1459.20;;;;;;4988027;28;20026;-78
2022/08/08 01:16:37;;;;;;;1.98;1.20;;;691.30;1459.20;;;;;;5004429;28;20380;-78
2022/08/08 01:19:12;;;;;;;3.67;1.80;;;691.20;1459.20;;;;;;5004816;28;20413;-78
2022/08/08 01:22:04;;;;;;;4.88;1.67;;;666.50;1459.20;;;;;;5005922;28;20515;-79
2022/08/08 01:24:48;;;;;;;2.78;1.20;;;666.40;1459.20;;;;;;4995458;28;20049;-79
2022/08/08 01:27:49;;;;;;;1.65;1.10;;;666.50;1459.20;;;;;;4995798;28;20058;-78
2022/08/08 01:31:08;;;;;;;8.25;1.58;;;666.50;1459.20;;;;;;4995386;28;20022;-78
2022/08/08 01:34:04;;;;;;;4.05;1.52;;;666.40;1459.20;;;;;;5009864;28;20034;-78
2022/08/08 01:37:21;;;;;;;2.58;1.42;;;666.40;1459.20;;;;;;4978048;28;20037;-78
2022/08/08 01:40:04;;;;;;;2.33;1.38;;;666.30;1484.80;;;;;;4995545;28;20031;-77
2022/08/08 01:43:11;;;;;;;3.65;1.40;;;666.40;1484.80;;;;;;4995566;28;20046;-78
2022/08/08 01:46:09;;;;;;;2.80;1.45;;;666.30;1484.80;;;;;;4973913;28;20051;-78
2022/08/08 01:48:59;;;;;;;4.22;1.77;;;666.30;1484.80;;;;;;4973995;28;20134;-77
2022/08/08 01:51:50;;;;;;;4.50;1.58;;;666.20;1484.80;;;;;;4954571;29;20112;-78
2022/08/08 01:54:42;;;;;;;3.22;1.40;;;666.00;1484.80;;;;;;4954345;29;20070;-77
2022/08/08 01:57:31;;;;;;;2.60;1.50;;;666.00;1484.80;;;;;;4954406;29;20031;-78
2022/08/08 02:00:24;;;;;;;6.10;1.38;;;665.90;1484.80;;;;;;4954587;29;20069;-77
2022/08/08 02:03:18;;;;;;;4.90;1.73;;;665.70;1510.40;;;;;;4965204;28;20026;-78
2022/08/08 02:06:01;;;;;;;3.15;1.50;;;665.80;1510.40;;;;;;4957261;28;20047;-77
2022/08/08 02:08:50;;;;;;;5.13;1.42;;;665.80;1510.40;;;;;;4973230;28;20106;-78
2022/08/08 02:11:33;;;;;;;6.10;1.70;;;665.70;1510.40;;;;;;4973453;28;20038;-77
2022/08/08 02:14:04;;;;;;;3.20;1.45;;;665.60;1510.40;;;;;;4973474;28;20038;-79
2022/08/08 02:16:36;;;;;;;6.40;1.70;;;665.70;1510.40;;;;;;4973341;28;20409;-78
2022/08/08 02:19:33;;;;;;;6.00;1.55;;;640.90;1484.80;;;;;;4973245;28;20034;-79
2022/08/08 02:22:30;;;;;;;6.40;1.50;;;665.60;1510.40;;;;;;4987366;28;20038;-78
2022/08/08 02:25:01;;;;;;;4.45;1.75;;;665.60;1510.40;;;;;;4994439;28;20384;-78
2022/08/08 02:27:51;;;;;;;6.30;1.70;;;665.60;1510.40;;;;;;5003943;28;20061;-77
2022/08/08 02:30:20;;;;;;;2.45;1.42;;;665.60;1510.40;;;;;;4996627;28;20018;-77
2022/08/08 02:32:58;;;;;;;6.47;1.38;;;665.60;1510.40;;;;;;5013753;28;20030;-78
2022/08/08 02:35:42;;;;;;;2.33;1.50;;;665.60;1510.40;;;;;;5014158;28;20040;-79
2022/08/08 02:38:37;;;;;;;4.53;1.73;;;640.90;1510.40;;;;;;4995705;28;20026;-77
2022/08/08 02:41:42;;;;;;;3.25;1.52;;;640.70;1510.40;;;;;;5013661;28;20046;-77
2022/08/08 02:44:24;;;;;;;4.57;1.70;;;640.80;1510.40;;;;;;4972775;28;20039;-77
2022/08/08 02:47:17;;;;;;;3.20;1.52;;;640.70;1510.40;;;;;;4972549;28;20031;-79
2022/08/08 02:50:04;;;;;;;2.78;1.50;;;640.60;1536.00;;;;;;4963472;28;20035;-78
2022/08/08 02:52:54;;;;;;;7.22;1.90;;;640.50;1536.00;;;;;;4953269;28;20039;-77
2022/08/08 02:55:37;;;;;;;5.30;1.65;;;640.50;1561.60;;;;;;4953134;28;20047;-78
2022/08/08 02:58:03;;;;;;;8.65;1.92;;;640.50;1561.60;;;;;;4953305;29;20119;-78
2022/08/08 03:00:58;;;;;;;4.75;1.75;;;640.40;1561.60;;;;;;4953251;29;20051;-78
2022/08/08 03:03:42;;;;;;;3.83;1.60;;;640.40;1587.20;;;;;;4953239;28;20046;-77
2022/08/08 03:06:57;;;;;;;3.20;1.75;;;640.40;1587.20;;;;;;4937201;29;20058;-78
2022/08/08 03:09:57;;;;;;;6.13;1.83;;;640.20;1587.20;;;;;;4953411;29;20031;-78
2022/08/08 03:12:40;;;;;;;4.50;1.58;;;640.40;1587.20;;;;;;4953054;28;20027;-78
2022/08/08 03:15:24;;;;;;;7.57;1.67;;;640.40;1587.20;;;;;;4953408;29;20035;-77
2022/08/08 03:18:06;;;;;;;3.65;1.80;;;640.20;1587.20;;;;;;4953319;29;20115;-78
2022/08/08 03:20:48;;;;;;;3.67;1.98;;;640.20;1561.60;;;;;;4971697;28;20050;-78
2022/08/08 03:23:14;;;;;;;3.75;1.98;;;640.40;1561.60;;;;;;4977224;28;20041;-78
2022/08/08 03:25:41;;;;;;;7.95;2.20;;;640.20;1561.60;;;;;;4977146;28;20460;-78
2022/08/08 03:28:20;;;;;;;4.40;1.63;;;640.20;1561.60;;;;;;4955974;28;20138;-78
2022/08/08 03:30:47;;;;;;;3.67;2.00;;;640.20;1561.60;;;;;;4972270;28;20520;-78
2022/08/08 03:33:19;;;;;;;3.55;1.75;;;640.20;1561.60;;;;;;4956075;28;20118;-78
2022/08/08 03:35:47;;;;;;;5.38;1.48;;;640.20;1561.60;;;;;;4955381;28;20031;-78
2022/08/08 03:38:13;;;;;;;7.25;1.45;;;640.10;1561.60;;;;;;4972207;28;20117;-78
2022/08/08 03:40:39;;;;;;;3.70;1.77;;;640.20;1561.60;;;;;;4973689;28;20195;-77
2022/08/08 03:43:09;;;;;;;2.65;1.70;;;640.10;1561.60;;;;;;4983412;28;20125;-78
2022/08/08 03:45:36;;;;;;;5.78;1.80;;;640.40;1561.60;;;;;;4993582;28;20030;-78
2022/08/08 03:48:06;;;;;;;4.05;1.63;;;640.20;1561.60;;;;;;4993645;28;20018;-78
2022/08/08 03:50:33;;;;;;;3.85;1.67;;;640.20;1561.60;;;;;;4995552;28;20120;-77
2022/08/08 03:53:07;;;;;;;2.75;2.00;;;640.10;1561.60;;;;;;5004235;28;20033;-77
2022/08/08 03:55:44;;;;;;;4.55;1.73;;;640.10;1561.60;;;;;;4992481;28;20185;-77
2022/08/08 03:58:20;;;;;;;4.63;1.80;;;640.10;1561.60;;;;;;5002539;28;20041;-77
2022/08/08 04:00:55;;;;;;;3.22;1.60;;;640.10;1561.60;;;;;;4990182;28;20513;-77
2022/08/08 04:03:21;;;;;;;3.55;1.65;;;640.20;1561.60;;;;;;5007180;28;20041;-78
2022/08/08 04:05:47;;;;;;;5.25;2.28;;;640.20;1536.00;;;;;;4985383;28;20042;-77
2022/08/08 04:08:21;;;;;;;6.32;1.73;;;640.20;1536.00;;;;;;4986447;28;20026;-78
2022/08/08 04:10:50;;;;;;;7.30;1.98;;;640.20;1561.60;;;;;;4997253;28;20054;-77
2022/08/08 04:13:16;;;;;;;6.00;2.00;;;640.20;1536.00;;;;;;4997005;28;20030;-76
2022/08/08 04:15:43;;;;;;;4.07;1.33;;;640.30;1536.00;;;;;;5005038;28;20030;-78
2022/08/08 04:18:09;;;;;;;6.10;1.63;;;640.30;1536.00;;;;;;4988298;28;20069;-78
2022/08/08 04:20:35;;;;;;;4.65;1.50;;;640.30;1561.60;;;;;;5001276;28;20030;-77
2022/08/08 04:23:00;;;;;;;9.35;1.70;;;640.30;1561.60;;;;;;4986539;28;20462;-76
2022/08/08 04:25:26;;;;;;;7.55;1.92;;;640.30;1536.00;;;;;;5006679;28;20088;-76
2022/08/08 04:27:52;;;;;;;10.05;2.08;;;640.40;1536.00;;;;;;5007645;28;20018;-79
2022/08/08 04:30:18;;;;;;;2.53;1.48;;;640.40;1536.00;;;;;;5007120;28;20057;-76
2022/08/08 04:32:43;;;;;;;6.57;1.83;;;640.40;1536.00;;;;;;4987695;28;20098;-76
2022/08/08 04:35:09;;;;;;;3.80;1.88;;;640.30;1536.00;;;;;;4984657;28;20033;-76
2022/08/08 04:37:35;;;;;;;4.05;1.50;;;640.30;1561.60;;;;;;4991456;28;20034;-77
2022/08/08 04:40:02;;;;;;;7.70;1.75;;;640.30;1561.60;;;;;;4985614;28;20027;-75
2022/08/08 04:42:30;;;;;;;4.20;1.90;;;640.20;1561.60;;;;;;4984636;28;20377;-75
2022/08/08 04:44:56;;;;;;;3.92;1.70;;;640.40;1536.00;;;;;;4968992;28;20121;-75
2022/08/08 04:47:22;;;;;;;3.85;1.75;;;640.40;1536.00;;;;;;4985828;28;20022;-75
2022/08/08 04:49:48;;;;;;;5.43;1.52;;;640.40;1536.00;;;;;;4984610;28;20026;-79
2022/08/08 04:52:14;;;;;;;3.13;1.77;;;640.40;1536.00;;;;;;4978010;28;20033;-78
2022/08/08 04:54:40;;;;;;;3.35;1.65;;;640.40;1536.00;;;;;;4969638;28;20034;-77
2022/08/08 04:57:05;;;;;;;4.25;1.40;;;640.50;1536.00;;;;;;4967407;28;20108;-81
2022/08/08 04:59:31;;;;;;;7.05;2.08;;;640.50;1536.00;;;;;;4969048;28;20484;-79
2022/08/08 05:01:57;;;;;;;3.00;1.70;;;640.50;1536.00;;;;;;4966757;28;20034;-79
2022/08/08 05:04:23;;;;;;;8.45;1.85;;;640.70;1536.00;;;;;;4967446;28;20030;-77
2022/08/08 05:06:49;;;;;;;3.20;1.60;;;640.60;1536.00;;;;;;4982660;28;20042;-77
2022/08/08 05:09:15;;;;;;;5.22;1.65;;;640.70;1510.40;;;;;;4994016;28;20228;-77
2022/08/08 05:11:40;;;;;;;2.95;1.60;;;640.70;1536.00;;;;;;4978626;28;20035;-79
2022/08/08 05:14:07;;;;;;;3.63;1.70;;;640.70;1510.40;;;;;;4993427;28;20855;-76
2022/08/08 05:16:33;;;;;;;3.38;1.65;;;640.30;1510.40;;;;;;4990003;28;20110;-78
2022/08/08 05:18:59;;;;;;;8.10;1.83;;;640.80;1510.40;;;;;;4971143;28;20552;-81
2022/08/08 05:21:25;;;;;;;4.32;1.92;;;640.90;1510.40;;;;;;4980702;28;20481;-77
2022/08/08 05:23:53;;;;;;;3.05;1.80;;;640.70;1510.40;;;;;;4978880;28;20031;-76
2022/08/08 05:26:21;;;;;;;4.30;1.80;;;640.70;1510.40;;;;;;4999095;28;20034;-78
2022/08/08 05:28:47;;;;;;;5.13;1.80;;;640.80;1510.40;;;;;;4968569;28;20049;-78
2022/08/08 05:31:13;;;;;;;3.53;2.00;;;640.90;1510.40;;;;;;4966067;28;20041;-78
2022/08/08 05:33:39;;;;;;;3.33;1.50;;;640.90;1510.40;;;;;;4976360;28;20098;-78
2022/08/08 05:36:07;;;;;;;2.83;1.60;;;665.60;1536.00;;;;;;4976339;28;20030;-78
2022/08/08 05:38:35;;;;;;;3.17;1.50;;;665.60;1536.00;;;;;;4959067;28;20106;-82
2022/08/08 05:41:03;;;;;;;12.95;2.95;;;665.70;1536.00;;;;;;4976241;28;20047;-77
2022/08/08 05:43:31;;;;;;;14.50;3.67;;;665.70;1510.40;;;;;;4976238;28;20599;-79
2022/08/08 05:46:03;;;;;;;5.15;2.20;;;665.80;1510.40;;;;;;4958736;28;20480;-75
2022/08/08 05:48:31;;;;;;;4.18;2.10;;;665.90;1510.40;;;;;;4976126;28;20511;-79
2022/08/08 05:50:57;;;;;;;28.52;3.35;;;665.80;1536.00;;;;;;4976002;28;20031;-74
2022/08/08 05:53:26;;;;;;;6.40;2.10;;;666.00;1510.40;;;;;;4976002;28;20029;-77
2022/08/08 05:55:54;;;;;;;5.57;1.98;;;666.00;1510.40;;;;;;4975866;28;20074;-81
2022/08/08 05:58:31;;;;;;;192.88;19.48;;;666.10;1510.40;;;;;;4976032;28;20025;-78
2022/08/08 06:00:58;;;;;;;11.38;2.78;;;666.20;1510.40;;;;;;4958162;28;20074;-77
2022/08/08 06:03:24;;;;;;;3.78;1.85;;;666.20;1510.40;;;;;;4975923;28;20019;-80
2022/08/08 06:06:05;;;;;;;5.50;2.17;;;666.20;1510.40;;;;;;4975748;28;20481;-75
2022/08/08 06:08:50;;;;;;;4.88;2.35;;;666.20;1510.40;;;;;;4957985;28;20046;-76
2022/08/08 06:11:16;;;;;;;5.72;2.50;;;666.30;1510.40;;;;;;4975549;28;20030;-77
2022/08/08 06:13:45;;;;;;;15.80;2.85;;;666.50;1510.40;;;;;;4975615;28;20539;-82
2022/08/08 06:16:15;;;;;;;4.93;2.47;;;666.50;1510.40;;;;;;5000938;28;20034;-79
2022/08/08 06:18:41;;;;;;;4.88;1.92;;;691.20;1510.40;;;;;;5005303;28;20025;-76
2022/08/08 06:21:09;;;;;;;6.28;2.03;;;691.20;1510.40;;;;;;5002756;28;20045;-75
2022/08/08 06:23:35;;;;;;;6.85;1.92;;;691.20;1510.40;;;;;;5004626;28;20034;-81
2022/08/08 06:26:08;;;;;;;7.97;2.63;;;691.30;1510.40;;;;;;5002791;28;20038;-78
2022/08/08 06:28:50;;;;;;;6.95;2.15;;;691.40;1484.80;;;;;;5004563;28;20026;-75
2022/08/08 06:31:20;;;;;;;4.20;2.63;;;691.40;1484.80;;;;;;5003806;28;20030;-77
2022/08/08 06:34:03;;;;;;;4.03;2.35;;;691.60;1510.40;;;;;;5013905;28;20022;-77
2022/08/08 06:36:36;;;;;;;6.55;3.10;;;691.70;1484.80;;;;;;5014163;28;20121;-75
2022/08/08 06:39:03;;;;;;;7.20;2.65;;;691.70;1484.80;;;;;;5014436;28;20068;-78
2022/08/08 06:41:33;;;;;;;7.25;3.50;;;691.70;1484.80;;;;;;5013583;28;20034;-76
2022/08/08 06:44:02;;;;;;;13.48;3.25;;;691.80;1510.40;;;;;;5014306;28;20474;-77
2022/08/08 06:46:29;;;;;;;12.18;3.15;;;691.90;1510.40;;;;;;5014168;28;20034;-75
2022/08/08 06:48:55;;;;;;;10.20;2.83;;;691.80;1484.80;;;;;;4994285;28;20027;-76
2022/08/08 06:51:21;;;;;;;13.52;3.25;;;692.10;1484.80;;;;;;4994664;28;20084;-77
2022/08/08 06:53:48;;;;;;;12.00;3.40;;;692.10;1484.80;;;;;;5000022;28;20029;-77
2022/08/08 06:56:14;;;;;;;8.35;2.97;;;716.80;1510.40;;;;;;5013858;28;20116;-83
2022/08/08 06:58:39;;;;;;;5.20;3.25;;;716.90;1459.20;;;;;;4996410;28;20109;-76
2022/08/08 07:01:09;;;;;;;4.50;2.58;;;717.10;1459.20;;;;;;4997325;28;20033;-77
2022/08/08 07:03:50;;;;;;;12.80;3.65;;;717.10;1484.80;;;;;;4994284;28;20331;-76
2022/08/08 07:06:22;;;;;;;11.98;3.35;;;717.20;1484.80;;;;;;4976579;28;20049;-79
2022/08/08 07:08:52;;;;;;;4.40;2.65;;;717.40;1459.20;;;;;;4976748;28;20106;-79
2022/08/08 07:11:21;;;;;;;15.32;3.63;;;717.50;1484.80;;;;;;4994172;28;20038;-83
2022/08/08 07:13:52;;;;;;;7.38;2.70;;;717.60;1459.20;;;;;;4994093;28;20028;-80
2022/08/08 07:16:23;;;;;;;10.70;2.97;;;742.40;1510.40;;;;;;4993962;28;20019;-83
2022/08/08 07:19:07;;;;;;;7.43;2.90;;;742.50;1459.20;;;;;;4976472;28;20057;-83
2022/08/08 07:21:44;;;;;;;10.32;3.72;;;742.50;1484.80;;;;;;4993935;28;20109;-83
2022/08/08 07:24:18;;;;;;;6.40;3.70;;;742.60;1459.20;;;;;;4993621;28;20037;-80
2022/08/08 07:26:46;;;;;;;7.13;3.50;;;742.60;1459.20;;;;;;4993619;28;20034;-77
2022/08/08 07:29:13;;;;;;;6.32;3.70;;;742.80;1459.20;;;;;;4976456;28;20030;-80
2022/08/08 07:31:40;;;;;;;5.47;3.22;;;742.80;1433.60;;;;;;4976487;28;20027;-83
2022/08/08 07:34:06;;;;;;;7.70;3.20;;;742.80;1433.60;;;;;;4996033;28;20054;-78
2022/08/08 07:36:32;;;;;;;9.70;3.50;;;742.90;1459.20;;;;;;5005516;28;20034;-83
2022/08/08 07:39:00;;;;;;;7.88;3.97;;;742.90;1484.80;;;;;;4976427;28;20026;-78
2022/08/08 07:41:28;;;;;;;5.60;3.97;;;743.00;1459.20;;;;;;4993744;28;20045;-83
2022/08/08 07:43:58;;;;;;;9.57;3.75;;;743.20;1433.60;;;;;;4993751;28;20026;-79
2022/08/08 07:46:24;;;;;;;7.70;3.60;;;743.10;1433.60;;;;;;4993508;28;20026;-77
2022/08/08 07:48:50;;;;;;;5.40;3.78;;;743.30;1433.60;;;;;;4993716;28;20022;-77
2022/08/08 07:51:17;;;;;;;9.50;3.78;;;743.30;1433.60;;;;;;4993598;28;20030;-81
2022/08/08 07:54:11;;;;;;;6.43;4.00;;;768.00;1433.60;;;;;;4993520;28;20026;-79
2022/08/08 07:56:52;;;;;;;3.95;3.05;;;768.10;1408.00;;;;;;4968217;28;20057;-76
2022/08/08 07:59:19;;;;;;;7.45;3.85;;;768.30;1433.60;;;;;;4993618;28;20069;-79
2022/08/08 08:01:55;;;;;;;5.88;3.72;;;768.40;1433.60;;;;;;4993603;28;20496;-79
2022/08/08 08:04:28;;;;;;;8.38;4.07;;;768.50;1433.60;;;;;;4976244;28;20145;-83
2022/08/08 08:06:59;;;;;;;8.90;5.95;;;768.50;1408.00;;;;;;4993538;28;20077;-80
2022/08/08 08:09:28;;;;;;;7.38;5.07;;;768.50;1433.60;;;;;;4993548;28;20033;-83
2022/08/08 08:11:55;;;;;;;8.15;4.63;;;768.70;1433.60;;;;;;4993303;28;20055;-78
2022/08/08 08:14:33;;;;;;;7.82;4.47;;;768.80;1433.60;;;;;;4993507;28;20018;-78
2022/08/08 08:17:00;;;;;;;11.40;4.80;;;768.90;1408.00;;;;;;4993449;28;20386;-80
2022/08/08 08:19:32;;;;;;;8.88;4.65;;;768.90;1433.60;;;;;;4993386;28;20030;-78
2022/08/08 08:21:58;;;;;;;6.32;4.72;;;793.60;1484.80;;;;;;4993328;28;20388;-82
2022/08/08 08:24:24;;;;;;;6.80;4.65;;;793.70;1459.20;;;;;;4975974;28;20038;-83
2022/08/08 08:26:50;;;;;;;6.00;4.00;;;793.60;1433.60;;;;;;4993230;28;20039;-78
2022/08/08 08:29:15;;;;;;;8.02;5.05;;;793.70;1433.60;;;;;;4975857;28;20027;-78
2022/08/08 08:31:41;;;;;;;9.82;5.00;;;793.70;1459.20;;;;;;4993346;28;20392;-79
2022/08/08 08:34:07;;;;;;;9.82;5.07;;;793.80;1459.20;;;;;;4975761;28;20029;-79
2022/08/08 08:36:34;;;;;;;7.30;5.13;;;793.90;1484.80;;;;;;4976393;28;20469;-77
2022/08/08 08:39:00;;;;;;;9.55;5.22;;;794.00;1459.20;;;;;;4996883;28;20423;-79
2022/08/08 08:41:28;;;;;;;9.07;5.65;;;794.00;1459.20;;;;;;4979147;28;20038;-78
2022/08/08 08:43:57;;;;;;;8.15;4.93;;;794.00;1484.80;;;;;;4996712;28;20035;-84
2022/08/08 08:46:24;;;;;;;6.70;5.65;;;794.10;1484.80;;;;;;4996566;28;20033;-77
2022/08/08 08:48:51;;;;;;;8.93;5.78;;;794.10;1484.80;;;;;;4996670;28;20027;-82
2022/08/08 08:51:17;;;;;;;6.57;5.60;;;794.10;1484.80;;;;;;4996597;28;20523;-80
2022/08/08 08:53:47;;;;;;;8.63;6.57;;;794.10;1510.40;;;;;;4996679;28;20030;-82
2022/08/08 08:56:13;;;;;;;10.23;6.28;;;794.20;1510.40;;;;;;4996766;28;20030;-81
2022/08/08 08:58:42;;;;;;;6.40;5.80;;;819.40;1484.80;;;;;;4979160;28;20109;-79
2022/08/08 09:01:10;;;;;;;11.43;6.32;;;794.30;1484.80;;;;;;4996293;28;20034;-84
2022/08/08 09:03:39;;;;;;;10.05;6.38;;;794.30;1484.80;;;;;;4996322;28;20097;-78
2022/08/08 09:06:09;;;;;;;13.80;6.10;;;794.40;1484.80;;;;;;4996389;28;20034;-78
2022/08/08 09:08:38;;;;;;;8.65;6.15;;;794.50;1510.40;;;;;;4996420;28;20027;-79
2022/08/08 09:11:06;;;;;;;10.98;5.80;;;819.30;1484.80;;;;;;4996344;28;20538;-82
2022/08/08 09:13:35;;;;;;;7.78;5.57;;;819.40;1459.20;;;;;;4996220;28;20056;-82
2022/08/08 09:16:01;;;;;;;10.48;5.78;;;819.50;1459.20;;;;;;4995986;28;20084;-84
2022/08/08 09:18:29;;;;;;;5.72;5.20;;;819.50;1433.60;;;;;;4996431;28;20109;-79
2022/08/08 09:20:55;;;;;;;12.52;5.25;;;819.60;1408.00;;;;;;4978731;28;20066;-83
2022/08/08 09:23:21;;;;;;;13.00;5.80;;;819.60;1408.00;;;;;;4996167;28;20018;-82
2022/08/08 09:26:04;;;;;;;6.88;5.00;;;819.60;1433.60;;;;;;4996000;28;20101;-83
2022/08/08 09:28:36;;;;;;;8.77;5.05;;;819.70;1408.00;;;;;;4995993;28;20022;-84
2022/08/08 09:31:15;;;;;;;8.40;5.57;;;819.80;1408.00;;;;;;4995844;28;20019;-79
2022/08/08 09:33:44;;;;;;;9.02;5.88;;;820.10;1408.00;;;;;;4996062;28;20457;-79
2022/08/08 09:36:22;;;;;;;8.27;5.65;;;844.80;1408.00;;;;;;4978337;28;20065;-78
2022/08/08 09:38:59;;;;;;;7.85;5.63;;;844.90;1408.00;;;;;;4995835;28;20030;-79
2022/08/08 09:41:39;;;;;;;6.38;5.53;;;845.10;1382.40;;;;;;4995467;28;20041;-80
2022/08/08 09:44:19;;;;;;;11.98;5.38;;;845.30;1382.40;;;;;;4977985;28;20129;-83
2022/08/08 09:46:50;;;;;;;11.50;5.65;;;845.40;1382.40;;;;;;4995681;28;20035;-79
2022/08/08 09:49:19;;;;;;;11.88;5.63;;;845.40;1356.80;;;;;;4977907;28;20093;-79
2022/08/08 09:51:54;;;;;;;12.30;5.28;;;845.40;1356.80;;;;;;4978317;28;20022;-77
2022/08/08 09:54:29;;;;;;;8.80;5.53;;;845.40;1356.80;;;;;;4978216;28;20034;-82
2022/08/08 09:56:55;;;;;;;;;;;845.60;1356.80;;;;;;4978700;28;20041;-81
2022/08/08 09:59:28;;;;;;;5.90;5.30;;;845.50;1331.20;;;;;;4977914;28;19906;-75
2022/08/08 10:01:58;;;;;;;9.63;5.63;;;845.60;1331.20;;;;;;4995412;28;20077;-83
2022/08/08 10:04:26;;;;;;;8.75;5.65;;;870.40;1331.20;;;;;;4994106;28;20027;-83
2022/08/08 10:06:52;;;;;;;9.63;5.47;;;870.50;1356.80;;;;;;4977722;28;20034;-83
2022/08/08 10:09:40;;;;;;;10.40;5.65;;;870.60;1331.20;;;;;;4995343;28;20054;-83
2022/08/08 10:12:06;;;;;;;6.88;5.50;;;870.70;1331.20;;;;;;4978056;28;20018;-82
2022/08/08 10:14:34;;;;;;;10.82;5.97;;;871.10;1305.60;;;;;;4993993;28;20038;-82
2022/08/08 10:17:07;;;;;;;9.35;5.57;;;871.00;1305.60;;;;;;4977643;28;20018;-81
2022/08/08 10:19:37;;;;;;;13.27;5.82;;;871.10;1280.00;;;;;;4977660;28;20030;-83
2022/08/08 10:22:05;;;;;;;8.18;6.20;;;871.10;1280.00;;;;;;4977668;28;20029;-82
2022/08/08 10:24:34;;;;;;;6.68;4.85;;;871.10;1305.60;;;;;;4977477;28;20034;-81
2022/08/08 10:27:03;;;;;;;9.45;5.65;;;871.20;1305.60;;;;;;4977418;28;20038;-83
2022/08/08 10:29:44;;;;;;;11.77;6.28;;;896.10;1280.00;;;;;;4977517;28;20026;-82
2022/08/08 10:32:31;;;;;;;10.70;5.90;;;896.10;1280.00;;;;;;4977307;28;20034;-83
2022/08/08 10:34:59;;;;;;;6.38;5.60;;;896.30;1254.40;;;;;;4986328;28;20029;-83
2022/08/08 10:37:27;;;;;;;9.43;5.55;;;896.30;1254.40;;;;;;4997783;28;20496;-81
2022/08/08 10:39:55;;;;;;;10.23;5.93;;;896.30;1254.40;;;;;;4994393;28;20172;-83
2022/08/08 10:42:23;;;;;;;9.05;5.65;;;896.40;1254.40;;;;;;4976785;28;20115;-82
2022/08/08 10:44:57;;;;;;;10.90;6.28;;;896.50;1254.40;;;;;;4993207;28;20037;-84
2022/08/08 10:47:23;;;;;;;6.95;6.13;;;896.90;1254.40;;;;;;4990562;28;20053;-82
2022/08/08 10:49:54;;;;;;;9.63;6.25;;;921.60;1280.00;;;;;;4977559;28;20023;-82
2022/08/08 10:52:33;;;;;;;11.13;6.10;;;921.80;1254.40;;;;;;4994684;28;20027;-81
2022/08/08 10:55:00;;;;;;;11.15;7.55;;;921.80;1228.80;;;;;;4992248;28;20444;-80
2022/08/08 10:57:27;;;;;;;10.13;5.90;;;922.00;1228.80;;;;;;4977126;28;20141;-83
2022/08/08 10:59:54;;;;;;;10.43;6.15;;;922.00;1228.80;;;;;;4993721;28;20018;-82
2022/08/08 11:02:29;;;;;;;12.00;6.07;;;922.10;1228.80;;;;;;4994591;28;20058;-81
2022/08/08 11:05:01;;;;;;;12.68;6.45;;;922.00;1228.80;;;;;;4976903;28;20041;-81
2022/08/08 11:07:34;;;;;;;7.38;6.00;;;922.00;1228.80;;;;;;4976689;28;20034;-82
2022/08/08 11:10:02;;;;;;;9.05;5.93;;;922.10;1228.80;;;;;;4992875;28;20105;-81
2022/08/08 11:12:28;;;;;;;8.82;5.93;;;922.00;1203.20;;;;;;4994337;28;20018;-81
2022/08/08 11:14:56;;;;;;;11.25;6.32;;;922.10;1228.80;;;;;;4993085;28;20018;-84
2022/08/08 11:17:27;;;;;;;9.85;5.85;;;922.30;1228.80;;;;;;4976923;28;20096;-86
2022/08/08 11:19:54;;;;;;;7.78;6.13;;;922.50;1203.20;;;;;;4994014;28;20105;-82
2022/08/08 11:22:28;;;;;;;8.73;6.20;;;922.50;1177.60;;;;;;4992965;28;20025;-81
2022/08/08 11:25:01;;;;;;;7.45;6.53;;;947.30;1177.60;;;;;;4976518;28;20118;-79
2022/08/08 11:27:35;;;;;;;7.07;5.88;;;947.20;1177.60;;;;;;4976535;28;20038;-79
2022/08/08 11:30:04;;;;;;;8.07;5.32;;;947.20;1203.20;;;;;;4993465;28;20022;-82
2022/08/08 11:32:30;;;;;;;8.07;6.47;;;922.10;1203.20;;;;;;4976410;28;20122;-81
2022/08/08 11:35:10;;;;;;;8.77;6.30;;;921.80;1228.80;;;;;;5002656;28;20042;-81
2022/08/08 11:37:38;;;;;;;10.95;6.07;;;922.10;1228.80;;;;;;4996622;28;20025;-79
2022/08/08 11:40:07;;;;;;;10.25;6.40;;;921.70;1254.40;;;;;;4993759;28;20068;-83
2022/08/08 11:42:33;;;;;;;11.05;7.13;;;921.60;1254.40;;;;;;4976220;28;20077;-82
2022/08/08 11:45:00;;;;;;;13.15;6.75;;;921.80;1228.80;;;;;;4976322;28;20388;-81
2022/08/08 11:47:26;;;;;;;10.90;6.18;;;922.00;1228.80;;;;;;4993746;28;20034;-80
2022/08/08 11:49:55;;;;;;;12.05;6.30;;;922.10;1203.20;;;;;;4976346;28;20023;-81
2022/08/08 11:52:22;;;;;;;7.63;6.55;;;922.40;1203.20;;;;;;4994309;28;20026;-81
2022/08/08 11:54:48;;;;;;;7.65;6.80;;;922.50;1177.60;;;;;;4985562;28;20026;-83
2022/08/08 11:57:17;;;;;;;10.43;6.70;;;947.20;1177.60;;;;;;4986441;28;20041;-79
2022/08/08 12:00:01;;;;;;;10.15;6.85;;;947.30;1177.60;;;;;;4984766;28;20014;-79
2022/08/08 12:02:29;;;;;;;6.82;6.13;;;947.40;1177.60;;;;;;5002715;28;20026;-81
2022/08/08 12:05:07;;;;;;;7.00;6.25;;;922.40;1203.20;;;;;;4986778;28;20040;-82
2022/08/08 12:07:52;;;;;;;9.13;6.15;;;947.20;1177.60;;;;;;4976326;28;20062;-79
2022/08/08 12:10:21;;;;;;;7.97;5.97;;;947.30;1177.60;;;;;;4976030;28;20044;-77
2022/08/08 12:12:48;;;;;;;10.15;6.32;;;947.50;1177.60;;;;;;4998261;28;20030;-81
2022/08/08 12:15:26;;;;;;;9.38;6.55;;;947.60;1177.60;;;;;;5009536;28;20077;-79
2022/08/08 12:17:52;;;;;;;9.15;6.40;;;947.30;1203.20;;;;;;5001241;28;20026;-82
2022/08/08 12:20:17;;;;;;;8.27;6.15;;;947.80;1152.00;;;;;;4980857;28;20037;-83
2022/08/08 12:22:52;;;;;;;8.68;6.65;;;947.80;1177.60;;;;;;4979263;28;20538;-83
2022/08/08 12:25:20;;;;;;;;;;;947.60;1177.60;;;;;;4973044;28;20047;-84
2022/08/08 12:27:46;;;;;;;9.73;6.28;;;947.80;1177.60;;;;;;4960475;28;19918;-82
2022/08/08 12:30:12;;;;;;;9.65;7.00;;;948.00;1177.60;;;;;;5001510;28;20036;-81
2022/08/08 12:32:42;;;;;;;10.10;6.50;;;947.70;1177.60;;;;;;5010571;28;20026;-81
2022/08/08 12:35:19;;;;;;;9.15;7.25;;;947.70;1152.00;;;;;;5003711;28;20025;-84
2022/08/08 12:37:46;;;;;;;9.45;6.82;;;947.80;1177.60;;;;;;4986275;28;20065;-86
2022/08/08 12:40:17;;;;;;;10.88;6.80;;;947.90;1152.00;;;;;;4983274;28;20029;-88
2022/08/08 12:42:47;;;;;;;8.68;6.93;;;972.80;1152.00;;;;;;4988045;28;20373;-87
2022/08/08 12:45:13;;;;;;;14.55;7.57;;;948.10;1177.60;;;;;;4988757;28;20026;-86
2022/08/08 12:47:40;;;;;;;31.98;9.75;;;947.60;1203.20;;;;;;4998508;28;20100;-86